createdAt,value
2022-08-24T00:02:06.665Z,19.73
2022-08-24T00:04:36.003Z,19.72
2022-08-24T00:07:05.413Z,19.72
2022-08-24T00:09:42.302Z,19.81
2022-08-24T00:12:19.810Z,19.79
2022-08-24T00:14:51.499Z,19.76
2022-08-24T00:17:22.765Z,19.72
2022-08-24T00:19:54.556Z,19.77
2022-08-24T00:22:23.558Z,19.75
2022-08-24T00:24:59.779Z,19.80
2022-08-24T00:27:28.151Z,19.87
2022-08-24T00:29:57.212Z,19.91
2022-08-24T00:32:25.538Z,19.89
2022-08-24T00:35:01.520Z,19.92
2022-08-24T00:37:30.322Z,20.00
2022-08-24T00:40:02.824Z,20.06
2022-08-24T00:42:37.267Z,20.10
2022-08-24T00:45:17.416Z,20.15
2022-08-24T00:47:48.904Z,20.13
2022-08-24T00:50:31.301Z,20.03
2022-08-24T00:53:18.808Z,20.04
2022-08-24T00:55:54.336Z,20.10
2022-08-24T00:58:34.016Z,20.09
2022-08-24T01:01:06.564Z,20.04
2022-08-24T01:03:42.011Z,20.03
2022-08-24T01:06:12.738Z,20.05
2022-08-24T01:08:42.060Z,20.04
2022-08-24T01:11:17.469Z,20.00
2022-08-24T01:13:49.923Z,19.92
2022-08-24T01:16:41.524Z,19.97
2022-08-24T01:19:19.939Z,19.81
2022-08-24T01:21:59.463Z,19.91
2022-08-24T01:24:29.195Z,19.82
2022-08-24T01:26:57.761Z,19.77
2022-08-24T01:29:31.439Z,19.79
2022-08-24T01:32:00.593Z,19.75
2022-08-24T01:34:31.820Z,19.73
2022-08-24T01:37:01.047Z,19.61
2022-08-24T01:39:35.495Z,19.60
2022-08-24T01:42:04.740Z,19.62
2022-08-24T01:44:37.487Z,19.68
2022-08-24T01:47:08.048Z,19.55
2022-08-24T01:49:39.630Z,19.53
2022-08-24T01:52:11.117Z,19.47
2022-08-24T01:54:43.538Z,19.42
2022-08-24T01:57:16.313Z,19.41
2022-08-24T01:59:46.978Z,19.36
2022-08-24T02:02:20.724Z,19.31
2022-08-24T02:04:52.177Z,19.27
2022-08-24T02:07:21.933Z,19.21
2022-08-24T02:09:53.101Z,19.17
2022-08-24T02:12:23.986Z,19.21
2022-08-24T02:14:52.622Z,19.18
2022-08-24T02:17:24.960Z,19.14
2022-08-24T02:19:59.372Z,19.11
2022-08-24T02:22:27.840Z,19.10
2022-08-24T02:24:57.715Z,19.08
2022-08-24T02:27:29.860Z,19.03
2022-08-24T02:29:58.177Z,19.00
2022-08-24T02:32:26.540Z,18.97
2022-08-24T02:34:55.071Z,19.01
2022-08-24T02:37:23.921Z,18.98
2022-08-24T02:39:53.588Z,18.96
2022-08-24T02:42:25.597Z,18.94
2022-08-24T02:44:55.917Z,18.96
2022-08-24T02:47:38.391Z,18.95
2022-08-24T02:50:12.042Z,18.91
2022-08-24T02:52:40.975Z,18.92
2022-08-24T02:55:20.049Z,18.95
2022-08-24T02:57:52.191Z,18.95
2022-08-24T03:00:23.664Z,19.00
2022-08-24T03:02:52.609Z,18.95
2022-08-24T03:05:29.208Z,18.87
2022-08-24T03:08:00.100Z,18.84
2022-08-24T03:10:38.160Z,18.80
2022-08-24T03:13:09.288Z,18.74
2022-08-24T03:15:37.772Z,18.69
2022-08-24T03:18:06.282Z,18.69
2022-08-24T03:20:37.513Z,18.64
2022-08-24T03:23:06.400Z,18.63
2022-08-24T03:25:35.068Z,18.63
2022-08-24T03:28:11.075Z,18.63
2022-08-24T03:30:46.788Z,18.59
2022-08-24T03:33:19.096Z,18.58
2022-08-24T03:35:47.594Z,18.55
2022-08-24T03:38:18.410Z,18.55
2022-08-24T03:40:47.692Z,18.47
2022-08-24T03:43:30.296Z,18.40
2022-08-24T03:46:03.118Z,18.39
2022-08-24T03:48:32.390Z,18.37
2022-08-24T03:51:00.915Z,18.36
2022-08-24T03:53:29.381Z,18.32
2022-08-24T03:55:58.165Z,18.28
2022-08-24T03:58:28.303Z,18.23
2022-08-24T04:00:58.557Z,18.24
2022-08-24T04:03:28.363Z,18.17
2022-08-24T04:06:02.004Z,18.12
2022-08-24T04:08:31.478Z,18.12
2022-08-24T04:11:04.010Z,18.11
2022-08-24T04:13:32.913Z,18.13
2022-08-24T04:16:07.091Z,18.11
2022-08-24T04:18:37.185Z,18.05
2022-08-24T04:21:08.140Z,18.04
2022-08-24T04:23:47.603Z,17.99
2022-08-24T04:26:32.463Z,17.89
2022-08-24T04:29:09.448Z,17.91
2022-08-24T04:31:43.846Z,17.87
2022-08-24T04:34:16.598Z,17.84
2022-08-24T04:36:46.364Z,17.87
2022-08-24T04:39:18.645Z,17.87
2022-08-24T04:42:22.382Z,17.77
2022-08-24T04:44:52.595Z,17.78
2022-08-24T04:47:24.322Z,17.78
2022-08-24T04:49:57.243Z,17.80
2022-08-24T04:52:29.460Z,17.77
2022-08-24T04:54:58.465Z,17.78
2022-08-24T04:57:31.883Z,17.81
2022-08-24T05:00:03.645Z,17.81
2022-08-24T05:02:36.204Z,17.82
2022-08-24T05:05:09.974Z,17.88
2022-08-24T05:07:41.321Z,17.96
2022-08-24T05:10:15.522Z,18.03
2022-08-24T05:12:46.974Z,17.95
2022-08-24T05:15:19.832Z,17.96
2022-08-24T05:17:51.188Z,17.98
2022-08-24T05:20:23.100Z,18.00
2022-08-24T05:22:58.136Z,18.08
2022-08-24T05:25:31.687Z,18.09
2022-08-24T05:28:00.921Z,18.12
2022-08-24T05:30:32.388Z,18.21
2022-08-24T05:33:05.901Z,18.27
2022-08-24T05:35:43.687Z,18.38
2022-08-24T05:38:12.638Z,18.44
2022-08-24T05:40:41.341Z,18.53
2022-08-24T05:43:10.056Z,18.57
2022-08-24T05:45:43.419Z,18.70
2022-08-24T05:48:12.900Z,18.81
2022-08-24T05:50:55.314Z,18.88
2022-08-24T05:53:27.466Z,18.96
2022-08-24T05:56:03.329Z,19.09
2022-08-24T05:58:31.704Z,19.20
2022-08-24T06:01:07.477Z,19.33
2022-08-24T06:03:37.072Z,19.44
2022-08-24T06:06:11.654Z,19.58
2022-08-24T06:08:42.463Z,19.70
2022-08-24T06:11:12.861Z,19.90
2022-08-24T06:13:43.600Z,20.00
2022-08-24T06:16:21.766Z,20.18
2022-08-24T06:18:55.302Z,20.44
2022-08-24T06:21:28.690Z,20.62
2022-08-24T06:24:01.383Z,20.72
2022-08-24T06:26:50.000Z,20.79
2022-08-24T06:29:22.378Z,20.87
2022-08-24T06:31:56.232Z,20.86
2022-08-24T06:34:27.071Z,20.88
2022-08-24T06:36:56.994Z,20.90
2022-08-24T06:39:28.020Z,20.92
2022-08-24T06:41:58.339Z,20.99
2022-08-24T06:44:34.845Z,21.04
2022-08-24T06:47:16.100Z,21.06
2022-08-24T06:49:44.844Z,21.09
2022-08-24T06:52:16.879Z,21.21
2022-08-24T06:54:47.126Z,21.37
2022-08-24T06:57:15.612Z,21.46
2022-08-24T06:59:44.913Z,21.43
2022-08-24T07:02:18.941Z,21.32
2022-08-24T07:04:51.051Z,21.40
2022-08-24T07:07:43.112Z,21.70
2022-08-24T07:10:12.533Z,22.01
2022-08-24T07:12:40.884Z,22.23
2022-08-24T07:15:17.191Z,22.49
2022-08-24T07:17:53.511Z,22.72
2022-08-24T07:20:22.517Z,22.48
2022-08-24T07:23:15.031Z,22.46
2022-08-24T07:25:49.634Z,22.71
2022-08-24T07:28:31.490Z,22.69
2022-08-24T07:31:02.051Z,22.97
2022-08-24T07:33:37.605Z,23.23
2022-08-24T07:36:07.407Z,23.55
2022-08-24T07:38:42.155Z,23.69
2022-08-24T07:41:38.202Z,23.70
2022-08-24T07:44:06.567Z,23.97
2022-08-24T07:46:42.956Z,24.00
2022-08-24T07:49:33.112Z,23.88
2022-08-24T07:52:05.309Z,23.87
2022-08-24T07:54:36.339Z,23.67
2022-08-24T07:57:09.155Z,23.55
2022-08-24T07:59:38.988Z,23.69
2022-08-24T08:02:11.865Z,23.88
2022-08-24T08:04:48.693Z,24.12
2022-08-24T08:07:19.815Z,24.32
2022-08-24T08:09:53.770Z,24.43
2022-08-24T08:12:22.255Z,24.26
2022-08-24T08:14:57.481Z,24.50
2022-08-24T08:17:26.458Z,24.60
2022-08-24T08:19:56.012Z,24.68
2022-08-24T08:22:42.926Z,24.50
2022-08-24T08:25:54.576Z,24.38
2022-08-24T08:28:37.732Z,24.29
2022-08-24T08:31:07.445Z,24.14
2022-08-24T08:33:37.251Z,24.13
2022-08-24T08:36:09.155Z,24.02
2022-08-24T08:38:43.114Z,23.90
2022-08-24T08:41:40.900Z,24.00
2022-08-24T08:44:19.303Z,23.98
2022-08-24T08:46:56.729Z,24.06
2022-08-24T08:50:03.136Z,24.18
2022-08-24T08:53:10.037Z,24.28
2022-08-24T08:55:47.063Z,24.59
2022-08-24T08:58:42.625Z,25.28
2022-08-24T09:01:32.832Z,25.77
2022-08-24T09:04:28.489Z,25.51
2022-08-24T09:07:22.438Z,25.62
2022-08-24T09:10:18.834Z,25.60
2022-08-24T09:13:10.164Z,25.34
2022-08-24T09:15:59.905Z,25.27
2022-08-24T09:18:49.459Z,25.28
2022-08-24T09:21:35.462Z,25.20
2022-08-24T09:24:20.325Z,25.27
2022-08-24T09:26:59.801Z,25.37
2022-08-24T09:29:48.557Z,25.40
2022-08-24T09:32:36.318Z,25.25
2022-08-24T09:35:09.776Z,25.33
2022-08-24T09:37:57.339Z,25.25
2022-08-24T09:40:38.209Z,25.21
2022-08-24T09:43:38.045Z,25.21
2022-08-24T09:46:34.844Z,25.28
2022-08-24T09:49:39.528Z,25.28
2022-08-24T09:52:38.987Z,25.13
2022-08-24T09:55:46.267Z,25.48
2022-08-24T09:58:26.638Z,25.56
2022-08-24T10:01:04.949Z,25.57
2022-08-24T10:03:52.388Z,26.23
2022-08-24T10:06:33.738Z,26.39
2022-08-24T10:09:14.890Z,26.72
2022-08-24T10:11:59.245Z,27.25
2022-08-24T10:14:42.540Z,27.58
2022-08-24T10:17:19.227Z,27.75
2022-08-24T10:20:06.662Z,27.86
2022-08-24T10:23:00.313Z,27.43
2022-08-24T10:25:34.763Z,27.76
2022-08-24T10:28:25.672Z,27.84
2022-08-24T10:31:12.542Z,27.94
2022-08-24T10:33:57.230Z,28.19
2022-08-24T10:36:56.754Z,27.88
2022-08-24T10:39:53.091Z,27.89
2022-08-24T10:43:00.375Z,27.84
2022-08-24T10:45:53.144Z,28.34
2022-08-24T10:49:04.601Z,27.47
2022-08-24T10:51:43.961Z,27.89
2022-08-24T10:54:13.774Z,28.19
2022-08-24T10:56:56.976Z,28.46
2022-08-24T10:59:29.789Z,28.54
2022-08-24T11:02:06.677Z,28.40
2022-08-24T11:04:41.730Z,28.79
2022-08-24T11:07:18.685Z,28.67
2022-08-24T11:09:56.278Z,28.84
2022-08-24T11:12:30.132Z,29.28
2022-08-24T11:15:01.890Z,29.45
2022-08-24T11:17:35.059Z,29.44
2022-08-24T11:20:05.818Z,29.27
2022-08-24T11:22:40.895Z,29.37
2022-08-24T11:25:15.596Z,29.53
2022-08-24T11:27:49.406Z,29.86
2022-08-24T11:30:26.465Z,29.82
2022-08-24T11:32:57.558Z,29.77
2022-08-24T11:35:31.978Z,30.24
2022-08-24T11:38:10.207Z,30.26
2022-08-24T11:40:57.102Z,29.91
2022-08-24T11:43:54.536Z,30.20
2022-08-24T11:46:33.557Z,30.40
2022-08-24T11:49:11.446Z,30.76
2022-08-24T11:51:50.958Z,30.54
2022-08-24T11:54:28.061Z,30.56
2022-08-24T11:57:11.922Z,30.81
2022-08-24T11:59:49.005Z,30.83
2022-08-24T12:02:28.205Z,30.60
2022-08-24T12:05:03.486Z,30.54
2022-08-24T12:07:50.897Z,30.20
2022-08-24T12:10:32.876Z,30.35
2022-08-24T12:13:07.704Z,30.77
2022-08-24T12:15:51.798Z,31.18
2022-08-24T12:18:31.104Z,30.81
2022-08-24T12:21:01.509Z,31.09
2022-08-24T12:23:38.449Z,31.19
2022-08-24T12:26:11.332Z,31.60
2022-08-24T12:28:42.299Z,31.72
2022-08-24T12:31:21.846Z,31.44
2022-08-24T12:33:57.813Z,31.33
2022-08-24T12:36:33.368Z,31.42
2022-08-24T12:39:09.046Z,31.99
2022-08-24T12:41:45.115Z,31.72
2022-08-24T12:44:18.386Z,31.98
2022-08-24T12:46:54.426Z,31.05
2022-08-24T12:49:29.198Z,30.85
2022-08-24T12:52:21.909Z,31.36
2022-08-24T12:55:19.185Z,31.79
2022-08-24T12:57:59.934Z,31.82
2022-08-24T13:00:37.362Z,31.82
2022-08-24T13:03:11.074Z,32.05
2022-08-24T13:05:44.839Z,32.20
2022-08-24T13:08:21.526Z,32.83
2022-08-24T13:10:56.081Z,32.28
2022-08-24T13:13:43.583Z,32.39
2022-08-24T13:16:13.139Z,32.45
2022-08-24T13:19:20.310Z,32.31
2022-08-24T13:21:57.277Z,32.60
2022-08-24T13:24:47.813Z,32.70
2022-08-24T13:27:58.199Z,32.73
2022-08-24T13:30:35.647Z,33.02
2022-08-24T13:33:09.205Z,33.26
2022-08-24T13:35:59.993Z,33.35
2022-08-24T13:38:59.333Z,33.03
2022-08-24T13:41:42.801Z,32.35
2022-08-24T13:44:23.795Z,32.73
2022-08-24T13:47:04.557Z,33.01
2022-08-24T13:50:03.999Z,33.06
2022-08-24T13:52:48.346Z,32.58
2022-08-24T13:55:36.996Z,33.22
2022-08-24T13:58:27.014Z,32.68
2022-08-24T14:01:01.970Z,32.19
2022-08-24T14:04:00.110Z,31.88
2022-08-24T14:06:43.505Z,31.84
2022-08-24T14:09:39.225Z,31.52
2022-08-24T14:12:25.113Z,31.39
2022-08-24T14:15:13.059Z,32.78
2022-08-24T14:17:56.447Z,34.18
2022-08-24T14:20:59.857Z,34.50
2022-08-24T14:23:35.777Z,33.22
2022-08-24T14:26:41.414Z,33.25
2022-08-24T14:29:46.774Z,33.92
2022-08-24T14:32:36.038Z,33.13
2022-08-24T14:35:24.616Z,31.74
2022-08-24T14:38:10.644Z,30.86
2022-08-24T14:40:57.801Z,30.47
2022-08-24T14:43:33.676Z,30.02
2022-08-24T14:46:13.415Z,29.60
2022-08-24T14:48:55.198Z,29.58
2022-08-24T14:51:54.623Z,29.50
2022-08-24T14:54:33.079Z,29.53
2022-08-24T14:57:21.052Z,29.48
2022-08-24T15:00:04.725Z,29.45
2022-08-24T15:03:16.713Z,29.60
2022-08-24T15:06:26.114Z,29.72
2022-08-24T15:09:16.140Z,29.73
2022-08-24T15:11:45.643Z,30.46
2022-08-24T15:14:37.729Z,32.11
2022-08-24T15:17:16.985Z,33.27
2022-08-24T15:19:55.024Z,34.36
2022-08-24T15:22:30.906Z,34.11
2022-08-24T15:25:14.681Z,33.23
2022-08-24T15:27:55.017Z,32.71
2022-08-24T15:30:27.342Z,32.50
2022-08-24T15:33:10.607Z,32.05
2022-08-24T15:35:45.795Z,31.71
2022-08-24T15:38:25.957Z,31.55
2022-08-24T15:41:05.243Z,32.49
2022-08-24T15:43:33.932Z,32.19
2022-08-24T15:46:10.687Z,32.35
2022-08-24T15:48:44.018Z,32.47
2022-08-24T15:51:37.188Z,32.67
2022-08-24T15:54:34.587Z,34.18
2022-08-24T15:57:05.563Z,35.38
2022-08-24T15:59:48.505Z,36.87
2022-08-24T16:02:29.117Z,35.55
2022-08-24T16:05:10.815Z,33.64
2022-08-24T16:08:11.698Z,32.59
2022-08-24T16:10:46.577Z,32.81
2022-08-24T16:13:25.202Z,32.67
2022-08-24T16:16:03.917Z,33.04
2022-08-24T16:18:58.420Z,33.90
2022-08-24T16:21:33.916Z,34.42
2022-08-24T16:24:13.052Z,35.38
2022-08-24T16:26:58.104Z,36.29
2022-08-24T16:29:55.774Z,35.21
2022-08-24T16:32:41.589Z,35.30
2022-08-24T16:35:21.504Z,35.01
2022-08-24T16:37:54.874Z,36.23
2022-08-24T16:40:25.201Z,37.46
2022-08-24T16:42:55.321Z,36.29
2022-08-24T16:45:26.817Z,36.09
2022-08-24T16:47:56.197Z,36.12
2022-08-24T16:50:28.252Z,34.29
2022-08-24T16:52:58.190Z,32.27
2022-08-24T16:55:28.716Z,31.44
2022-08-24T16:57:57.249Z,30.27
2022-08-24T17:00:25.605Z,29.83
2022-08-24T17:02:57.880Z,29.48
2022-08-24T17:05:29.386Z,29.38
2022-08-24T17:08:02.022Z,29.43
2022-08-24T17:10:38.028Z,29.26
2022-08-24T17:13:07.449Z,29.07
2022-08-24T17:15:39.468Z,28.80
2022-08-24T17:18:11.029Z,28.67
2022-08-24T17:20:39.854Z,28.67
2022-08-24T17:23:10.465Z,28.72
2022-08-24T17:25:42.000Z,28.56
2022-08-24T17:28:16.234Z,28.40
2022-08-24T17:30:47.608Z,28.38
2022-08-24T17:33:19.482Z,28.38
2022-08-24T17:35:48.139Z,28.25
2022-08-24T17:38:16.955Z,28.23
2022-08-24T17:40:47.924Z,28.09
2022-08-24T17:43:16.502Z,28.00
2022-08-24T17:45:52.425Z,27.88
2022-08-24T17:48:25.546Z,27.79
2022-08-24T17:50:56.224Z,27.69
2022-08-24T17:53:30.623Z,27.56
2022-08-24T17:56:00.444Z,27.49
2022-08-24T17:58:29.567Z,27.39
2022-08-24T18:01:01.282Z,27.28
2022-08-24T18:03:29.782Z,27.24
2022-08-24T18:06:01.737Z,27.14
2022-08-24T18:08:30.190Z,27.05
2022-08-24T18:10:58.924Z,26.93
2022-08-24T18:13:28.643Z,26.86
2022-08-24T18:15:59.691Z,26.76
2022-08-24T18:18:38.417Z,26.65
2022-08-24T18:21:06.822Z,26.61
2022-08-24T18:23:35.767Z,26.60
2022-08-24T18:26:19.633Z,26.65
2022-08-24T18:28:55.308Z,26.60
2022-08-24T18:31:28.569Z,26.56
2022-08-24T18:34:01.925Z,26.54
2022-08-24T18:36:36.600Z,26.48
2022-08-24T18:39:07.313Z,26.42
2022-08-24T18:41:49.163Z,26.43
2022-08-24T18:44:26.243Z,26.33
2022-08-24T18:47:01.347Z,26.24
2022-08-24T18:49:30.146Z,26.24
2022-08-24T18:51:58.973Z,26.17
2022-08-24T18:54:35.588Z,26.07
2022-08-24T18:57:08.708Z,26.01
2022-08-24T18:59:40.834Z,25.94
2022-08-24T19:02:33.586Z,25.90
2022-08-24T19:05:08.409Z,25.88
2022-08-24T19:07:40.582Z,25.82
2022-08-24T19:10:12.030Z,25.69
2022-08-24T19:12:46.848Z,25.62
2022-08-24T19:15:30.906Z,25.58
2022-08-24T19:18:10.944Z,25.60
2022-08-24T19:20:44.744Z,25.65
2022-08-24T19:23:20.632Z,25.66
2022-08-24T19:25:49.559Z,25.65
2022-08-24T19:28:18.831Z,25.61
2022-08-24T19:30:49.720Z,25.56
2022-08-24T19:33:26.741Z,25.50
2022-08-24T19:35:55.740Z,25.38
2022-08-24T19:38:26.418Z,25.31
2022-08-24T19:41:00.854Z,25.19
2022-08-24T19:43:32.706Z,25.15
2022-08-24T19:46:08.540Z,25.08
2022-08-24T19:48:44.607Z,25.02
2022-08-24T19:51:15.170Z,24.98
2022-08-24T19:53:45.688Z,24.92
2022-08-24T19:56:17.160Z,24.86
2022-08-24T19:58:48.028Z,24.82
2022-08-24T20:01:21.090Z,24.77
2022-08-24T20:03:50.496Z,24.65
2022-08-24T20:06:25.960Z,24.58
2022-08-24T20:08:54.685Z,24.51
2022-08-24T20:11:27.758Z,24.49
2022-08-24T20:13:56.189Z,24.55
2022-08-24T20:16:29.630Z,24.41
2022-08-24T20:19:01.901Z,24.35
2022-08-24T20:21:31.645Z,24.39
2022-08-24T20:24:01.260Z,24.47
2022-08-24T20:26:36.042Z,24.51
2022-08-24T20:29:09.582Z,24.59
2022-08-24T20:31:43.721Z,24.57
2022-08-24T20:34:16.644Z,24.49
2022-08-24T20:36:50.923Z,24.38
2022-08-24T20:39:25.705Z,24.43
2022-08-24T20:41:54.437Z,24.55
2022-08-24T20:44:23.264Z,24.51
2022-08-24T20:46:58.337Z,24.55
2022-08-24T20:49:27.928Z,24.28
2022-08-24T20:51:56.737Z,24.10
2022-08-24T20:54:25.130Z,24.03
2022-08-24T20:56:53.651Z,24.11
2022-08-24T20:59:21.995Z,24.16
2022-08-24T21:01:51.535Z,23.88
2022-08-24T21:04:21.164Z,23.73
2022-08-24T21:06:50.802Z,23.67
2022-08-24T21:09:19.746Z,23.61
2022-08-24T21:11:48.322Z,23.55
2022-08-24T21:14:22.111Z,23.44
2022-08-24T21:16:50.609Z,23.38
2022-08-24T21:19:20.298Z,23.28
2022-08-24T21:21:48.678Z,23.25
2022-08-24T21:24:19.952Z,23.21
2022-08-24T21:26:49.189Z,23.16
2022-08-24T21:29:17.756Z,23.14
2022-08-24T21:32:06.250Z,23.12
2022-08-24T21:34:42.860Z,23.09
2022-08-24T21:37:13.470Z,23.03
2022-08-24T21:39:42.670Z,22.93
2022-08-24T21:42:11.284Z,22.90
2022-08-24T21:44:40.526Z,22.84
2022-08-24T21:47:10.692Z,22.86
2022-08-24T21:49:41.258Z,22.81
2022-08-24T21:52:11.230Z,22.79
2022-08-24T21:54:39.564Z,22.79
2022-08-24T21:57:11.800Z,22.76
2022-08-24T21:59:43.206Z,22.71
2022-08-24T22:02:13.488Z,22.71
2022-08-24T22:04:47.209Z,22.68
2022-08-24T22:07:29.113Z,22.56
2022-08-24T22:10:01.268Z,22.55
2022-08-24T22:12:31.102Z,22.52
2022-08-24T22:15:02.383Z,22.51
2022-08-24T22:17:31.172Z,22.51
2022-08-24T22:19:59.820Z,22.48
2022-08-24T22:22:29.634Z,22.46
2022-08-24T22:25:03.844Z,22.48
2022-08-24T22:27:37.534Z,22.38
2022-08-24T22:30:06.732Z,22.37
2022-08-24T22:32:37.863Z,22.36
2022-08-24T22:35:10.117Z,22.38
2022-08-24T22:37:40.402Z,22.34
2022-08-24T22:40:13.041Z,22.33
2022-08-24T22:42:42.074Z,22.27
2022-08-24T22:45:16.759Z,22.22
2022-08-24T22:47:49.740Z,22.21
2022-08-24T22:50:18.250Z,22.19
2022-08-24T22:52:48.702Z,22.19
2022-08-24T22:55:17.060Z,22.14
2022-08-24T22:57:51.320Z,22.10
2022-08-24T23:00:20.468Z,22.08
2022-08-24T23:02:48.813Z,22.05
2022-08-24T23:05:17.389Z,22.08
2022-08-24T23:07:50.552Z,22.06
2022-08-24T23:10:19.072Z,22.07
2022-08-24T23:12:50.344Z,22.05
2022-08-24T23:15:18.862Z,22.03
2022-08-24T23:17:47.166Z,21.99
2022-08-24T23:20:15.078Z,22.03
2022-08-24T23:22:43.706Z,22.05
2022-08-24T23:25:14.624Z,22.04
2022-08-24T23:27:46.620Z,22.05
2022-08-24T23:30:22.083Z,22.10
2022-08-24T23:32:50.718Z,22.10
2022-08-24T23:35:19.084Z,22.12
2022-08-24T23:37:50.375Z,22.11
2022-08-24T23:40:24.583Z,22.09
2022-08-24T23:42:52.960Z,22.05
2022-08-24T23:45:28.128Z,22.01
2022-08-24T23:47:58.520Z,21.97
2022-08-24T23:50:27.078Z,21.85
2022-08-24T23:52:55.383Z,21.75
2022-08-24T23:55:25.182Z,21.67
2022-08-24T23:57:54.429Z,21.60
